Amis Brave — 3FCV2 — position and weather

sailwx.info

Track history (hours):
 
Tides and Currents Weather Stations Pressure Air Temp Water Temp Dewpoint Dewpoint Depression Visibility Wind Speed Wind Dir Waves Ship Positions

Amis Brave

Last reported at 2018-Jan-28 03:44 UTC. Time now 2018-Feb-21 22:48 UTC.
Position N 37°24' E 025°55'.
Warning: this ship's position is 24 days out of date.

Length 200 m; draft 12.7 m.

Type: Cargo ship. MMSI: 355534000.

Date/timePositionNaut miles runAvg speedWind from/ knotsBaromVisibWave heightAir tempDewpointWater temp
2018-Jan-28 03:44N 37°24' E 025°55'312.5
2018-Jan-28 03:31N 37°27' E 025°54'713.0
2018-Jan-28 02:59N 37°33' E 025°51'613.2
2018-Jan-28 02:31N 37°39' E 025°48'612.8
2018-Jan-28 02:00N 37°45' E 025°46'229 8.1
2018-Jan-26 21:46N 40°53' E 028°35'910.4
2018-Jan-26 20:53N 40°54' E 028°47'6 1.5
2018-Jan-26 16:43N 40°57' E 028°54'0 0.2
2018-Jan-26 16:25N 40°57' E 028°54'0 0.2
2018-Jan-26 15:59N 40°57' E 028°54'3 6.0
2018-Jan-26 15:29N 40°58' E 028°58'322 7.8
2018-Jan-24 22:04N 46°06' E 031°06'410.7
2018-Jan-24 21:40N 46°09' E 031°01'210.7
2018-Jan-24 21:29N 46°11' E 030°60'510.7
2018-Jan-24 21:00N 46°14' E 030°55'5 9.9
2018-Jan-24 20:30N 46°19' E 030°55'611.1
2018-Jan-24 20:00N 46°25' E 030°55'510.9
2018-Jan-24 19:30N 46°30' E 030°55'4 7.9
2018-Jan-24 19:00N 46°33' E 030°59'4 8.5
2018-Jan-24 18:30N 46°34' E 031°05'2 3.4
2018-Jan-24 17:58N 46°34' E 031°08'0 0.0
2018-Jan-24 17:29N 46°34' E 031°08'0 0.0
2018-Jan-24 16:59N 46°34' E 031°08'0 0.0
2018-Jan-24 16:29N 46°34' E 031°08'0 0.0
2018-Jan-24 15:56N 46°34' E 031°08'0 0.0
2018-Jan-24 15:28N 46°34' E 031°08'0 0.0
2018-Jan-24 14:59N 46°34' E 031°08'0 0.0
2018-Jan-24 14:29N 46°34' E 031°08'0 0.0
2018-Jan-24 13:59N 46°34' E 031°08'0 0.0
2018-Jan-24 13:28N 46°34' E 031°08'0 0.0
2018-Jan-24 12:59N 46°34' E 031°08'0 0.0
2018-Jan-24 12:29N 46°34' E 031°08'0 0.0
2018-Jan-24 11:58N 46°34' E 031°08'0 0.0
2018-Jan-24 11:29N 46°34' E 031°08'0 0.0
2018-Jan-24 10:58N 46°34' E 031°08'0 0.0
2018-Jan-24 10:29N 46°34' E 031°08'0 0.0
2018-Jan-24 09:59N 46°34' E 031°08'0 0.0
2018-Jan-24 09:28N 46°34' E 031°08'0 0.0
2018-Jan-24 08:58N 46°34' E 031°08'0 0.0
2018-Jan-24 08:28N 46°34' E 031°08'0 0.0
2018-Jan-24 07:59N 46°34' E 031°08'0 0.0
2018-Jan-24 07:28N 46°34' E 031°08'0 0.0
2018-Jan-24 06:59N 46°34' E 031°08'0 0.0
2018-Jan-24 06:29N 46°34' E 031°08'0 0.0
2018-Jan-24 05:58N 46°34' E 031°08'0 0.0
2018-Jan-24 05:29N 46°34' E 031°08'0 0.0
2018-Jan-24 04:55N 46°34' E 031°08'0 0.4
2018-Jan-24 04:25N 46°34' E 031°08'2 4.4
2018-Jan-24 04:00N 46°34' E 031°05'3 6.8
2018-Jan-24 03:30N 46°34' E 031°00'4 8.0
2018-Jan-24 02:59N 46°38' E 031°01'1 1.4
2018-Jan-24 02:30N 46°39' E 031°01'0 0.0
2018-Jan-24 01:54N 46°39' E 031°01'0 0.0
2018-Jan-24 01:18N 46°39' E 031°01'0 0.0
2018-Jan-24 01:00N 46°39' E 031°01'0 0.0
2018-Jan-24 00:30N 46°39' E 031°01'0 0.0
2018-Jan-24 00:00N 46°39' E 031°01'0 0.0
2018-Jan-23 23:24N 46°39' E 031°01'0 0.0
2018-Jan-23 23:00N 46°39' E 031°01'0 0.0
2018-Jan-23 22:30N 46°39' E 031°01'0 0.0
2018-Jan-23 22:00N 46°39' E 031°01'0 0.0
2018-Jan-23 21:24N 46°39' E 031°01'0 0.0
2018-Jan-23 21:00N 46°39' E 031°01'0 0.0
2018-Jan-23 20:30N 46°39' E 031°01'0 0.0
2018-Jan-23 20:00N 46°39' E 031°01'0 0.0
2018-Jan-23 19:30N 46°39' E 031°01'0 0.0
2018-Jan-23 19:00N 46°39' E 031°01'0 0.0
2018-Jan-23 03:32N 46°39' E 031°01'0 0.0
2018-Jan-23 03:30N 46°39' E 031°01'0 0.0
2018-Jan-23 02:49N 46°39' E 031°01'0 0.0
2018-Jan-23 02:28N 46°39' E 031°01'0 0.0
2018-Jan-23 01:59N 46°39' E 031°01'0 0.0
2018-Jan-23 01:30N 46°39' E 031°01'0 0.0
2018-Jan-23 01:00N 46°39' E 031°01'0 0.0
2018-Jan-23 00:30N 46°39' E 031°01'0 0.0
2018-Jan-23 00:00N 46°39' E 031°01'0 0.0
2018-Jan-22 23:30N 46°39' E 031°01'0 0.0
2018-Jan-22 23:00N 46°39' E 031°01'0 0.0
2018-Jan-22 22:29N 46°39' E 031°01'0 0.0
2018-Jan-22 21:59N 46°39' E 031°01'0 0.0
2018-Jan-22 21:30N 46°39' E 031°01'0 0.0
2018-Jan-22 21:00N 46°39' E 031°01'0 0.0
2018-Jan-22 20:30N 46°39' E 031°01'0 0.0
2018-Jan-22 20:00N 46°39' E 031°01'0 0.0
2018-Jan-22 19:30N 46°39' E 031°01'0 0.0
2018-Jan-22 19:00N 46°39' E 031°01'0 0.0
2018-Jan-22 18:30N 46°39' E 031°01'0 0.0
2018-Jan-22 18:00N 46°39' E 031°01'0 0.0
2018-Jan-22 17:30N 46°39' E 031°01'0 0.0
2018-Jan-22 17:00N 46°39' E 031°01'0 0.0
2018-Jan-22 16:30N 46°39' E 031°01'0 0.0
2018-Jan-22 15:59N 46°39' E 031°01'0 0.0
2018-Jan-22 15:30N 46°39' E 031°01'0 0.0
2018-Jan-22 15:00N 46°39' E 031°01'0 0.0
2018-Jan-22 14:29N 46°39' E 031°01'0 0.0
2018-Jan-22 14:00N 46°39' E 031°01'0 0.0
2018-Jan-22 13:30N 46°39' E 031°01'0 0.0
2018-Jan-22 13:00N 46°39' E 031°01'0 0.0
2018-Jan-22 12:30N 46°39' E 031°01'0 0.0
2018-Jan-22 12:00N 46°39' E 031°01'0 0.0
2018-Jan-22 11:30N 46°39' E 031°01'0 0.0
2018-Jan-22 11:00N 46°39' E 031°01'0 0.0
2018-Jan-22 10:30N 46°39' E 031°01'0 0.0
2018-Jan-22 10:00N 46°39' E 031°01'0 0.0
2018-Jan-22 09:30N 46°39' E 031°01'0 0.0
2018-Jan-22 09:00N 46°39' E 031°01'0 0.0
2018-Jan-22 08:30N 46°39' E 031°01'0 0.0
2018-Jan-22 08:00N 46°39' E 031°01'0 0.0
2018-Jan-22 07:30N 46°39' E 031°01'0 0.0
2018-Jan-22 07:00N 46°39' E 031°01'0 0.0
2018-Jan-22 06:30N 46°39' E 031°01'0 0.0
2018-Jan-22 06:00N 46°39' E 031°01'0 0.0
2018-Jan-22 05:30N 46°39' E 031°01'0 0.0
2018-Jan-22 05:00N 46°39' E 031°01'0 0.0
2018-Jan-22 04:30N 46°39' E 031°01'0 0.0
2018-Jan-22 04:00N 46°39' E 031°01'0 0.0
2018-Jan-22 03:30N 46°39' E 031°01'0 0.0
2018-Jan-22 03:00N 46°39' E 031°01'0 0.0
2018-Jan-22 02:30N 46°39' E 031°01'0 0.0
2018-Jan-22 02:00N 46°39' E 031°01'0 0.0
2018-Jan-22 01:30N 46°39' E 031°01'0 0.0
2018-Jan-22 01:00N 46°39' E 031°01'0 0.0
2018-Jan-22 00:30N 46°39' E 031°01'0 0.0
2018-Jan-22 00:00N 46°39' E 031°01'0 0.0
2018-Jan-21 23:30N 46°39' E 031°01'0 0.0
2018-Jan-21 23:00N 46°39' E 031°01'0 0.0
2018-Jan-21 22:30N 46°39' E 031°01'0 0.0
2018-Jan-21 22:00N 46°39' E 031°01'0 0.0
2018-Jan-21 21:30N 46°39' E 031°01'0 0.0
2018-Jan-21 21:00N 46°39' E 031°01'0 0.0
2018-Jan-21 20:30N 46°39' E 031°01'0 0.0
2018-Jan-21 20:00N 46°39' E 031°01'0 0.0
2018-Jan-21 19:28N 46°39' E 031°01'0 0.0
2018-Jan-21 19:00N 46°39' E 031°01'0 0.0
2018-Jan-21 18:29N 46°39' E 031°01'0 0.0
2018-Jan-21 18:00N 46°39' E 031°01'0 0.0
2018-Jan-21 17:30N 46°39' E 031°01'0 0.0
2018-Jan-21 17:00N 46°39' E 031°01'0 0.0
2018-Jan-21 16:30N 46°39' E 031°01'0 0.0
2018-Jan-21 16:00N 46°39' E 031°01'0 0.0
2018-Jan-21 15:30N 46°39' E 031°01'0 0.0
2018-Jan-21 15:00N 46°39' E 031°01'0 0.0
2018-Jan-21 14:30N 46°39' E 031°01'0 0.0
2018-Jan-21 14:00N 46°39' E 031°01'0 0.0
2018-Jan-21 13:30N 46°39' E 031°01'0 0.0
2018-Jan-21 12:55N 46°39' E 031°01'0 0.0
2018-Jan-21 12:25N 46°39' E 031°01'0 0.0
2018-Jan-21 11:58N 46°39' E 031°01'0 0.0
2018-Jan-21 11:28N 46°39' E 031°01'0 0.0
2018-Jan-21 10:58N 46°39' E 031°01'0 0.0
2018-Jan-21 10:28N 46°39' E 031°01'0 0.0
2018-Jan-21 09:55N 46°39' E 031°01'0 0.0
2018-Jan-21 09:28N 46°39' E 031°01'0 0.0
2018-Jan-21 08:58N 46°39' E 031°01'0 0.0
2018-Jan-21 08:28N 46°39' E 031°01'0 0.0
2018-Jan-21 07:58N 46°39' E 031°01'0 0.0
2018-Jan-21 07:28N 46°39' E 031°01'0 0.0
2018-Jan-21 06:55N 46°39' E 031°01'0 0.0
2018-Jan-21 06:28N 46°39' E 031°01'0 0.0
2018-Jan-21 05:58N 46°39' E 031°01'0 0.0
2018-Jan-21 05:28N 46°39' E 031°01'0 0.0
2018-Jan-21 04:58N 46°39' E 031°01'1 2.0
2018-Jan-21 04:30N 46°38' E 031°01'4 7.9
2018-Jan-21 03:59N 46°34' E 031°01'3 6.5
2018-Jan-21 03:30N 46°34' E 031°05'2 3.5
2018-Jan-21 02:58N 46°34' E 031°08'0 0.1
2018-Jan-21 02:28N 46°34' E 031°08'0 0.0
2018-Jan-21 01:58N 46°34' E 031°08'0 0.0
2018-Jan-21 01:28N 46°34' E 031°08'0 0.1
2018-Jan-21 00:58N 46°34' E 031°08'0 0.0
2018-Jan-21 00:28N 46°34' E 031°08'0 0.0
2018-Jan-20 23:58N 46°34' E 031°08'0 0.0
2018-Jan-20 23:22N 46°34' E 031°08'0 0.0
2018-Jan-20 22:58N 46°34' E 031°08'0 0.1
2018-Jan-20 22:28N 46°34' E 031°08'0 0.0
2018-Jan-20 21:55N 46°34' E 031°08'0 0.0
2018-Jan-20 21:28N 46°34' E 031°08'0 0.0
2018-Jan-20 20:58N 46°34' E 031°08'0 0.0
2018-Jan-20 20:25N 46°34' E 031°08'0 0.0
2018-Jan-20 19:58N 46°34' E 031°08'0 0.0
2018-Jan-20 19:25N 46°34' E 031°08'0 0.0
2018-Jan-20 18:58N 46°34' E 031°08'0 0.0
2018-Jan-20 18:28N 46°34' E 031°08'0 0.1
2018-Jan-20 17:58N 46°34' E 031°08'0 0.0
2018-Jan-20 17:28N 46°34' E 031°08'0 0.1
2018-Jan-20 16:58N 46°34' E 031°08'0 0.1
2018-Jan-20 16:28N 46°34' E 031°08'0 0.0
2018-Jan-20 15:58N 46°34' E 031°08'0 0.0
2018-Jan-20 15:28N 46°34' E 031°08'0 0.0
2018-Jan-20 14:58N 46°34' E 031°08'0 0.0
2018-Jan-20 14:28N 46°34' E 031°08'0 0.0
2018-Jan-20 13:58N 46°34' E 031°08'0 0.0
2018-Jan-20 13:28N 46°34' E 031°08'0 0.0
2018-Jan-20 12:58N 46°34' E 031°08'0 0.0
2018-Jan-20 12:28N 46°34' E 031°08'0 0.1
2018-Jan-20 11:58N 46°34' E 031°08'0 0.1
2018-Jan-20 11:28N 46°34' E 031°08'0 0.0
2018-Jan-20 10:58N 46°34' E 031°08'0 0.0
2018-Jan-20 10:28N 46°34' E 031°08'0 0.0
2018-Jan-20 09:58N 46°34' E 031°08'0 0.1
2018-Jan-20 09:28N 46°34' E 031°08'0 0.0
2018-Jan-20 08:58N 46°34' E 031°08'0 0.0
2018-Jan-20 08:28N 46°34' E 031°08'0 0.0
2018-Jan-20 07:58N 46°34' E 031°08'0 0.0
2018-Jan-20 07:28N 46°34' E 031°08'0 0.0
2018-Jan-20 06:58N 46°34' E 031°08'0 0.1
2018-Jan-20 06:28N 46°34' E 031°08'0 0.0
2018-Jan-20 05:58N 46°34' E 031°08'0 0.0
2018-Jan-20 05:28N 46°34' E 031°08'0 0.1
2018-Jan-20 04:58N 46°34' E 031°08'0 0.1
2018-Jan-20 04:22N 46°34' E 031°08'0 0.1
2018-Jan-20 03:55N 46°34' E 031°08'0 0.1
2018-Jan-20 03:22N 46°34' E 031°08'0 0.0
2018-Jan-20 02:58N 46°34' E 031°08'0 0.1
2018-Jan-20 02:28N 46°34' E 031°08'0 0.0
2018-Jan-20 01:58N 46°34' E 031°08'0 0.0
2018-Jan-20 01:28N 46°34' E 031°08'0 0.0
2018-Jan-20 00:58N 46°34' E 031°08'0 0.0
2018-Jan-20 00:25N 46°34' E 031°08'0 0.0
2018-Jan-19 23:58N 46°34' E 031°08'0 0.0
2018-Jan-19 23:28N 46°34' E 031°08'0 0.0
2018-Jan-19 22:58N 46°34' E 031°08'0 0.1
2018-Jan-19 22:28N 46°34' E 031°08'0 0.0
2018-Jan-19 21:58N 46°34' E 031°08'0 0.0
2018-Jan-19 21:28N 46°34' E 031°08'0 0.0
2018-Jan-19 20:58N 46°34' E 031°08'0 0.1
2018-Jan-19 20:28N 46°34' E 031°08'0 0.0
2018-Jan-19 19:58N 46°34' E 031°08'0 0.0
2018-Jan-19 19:28N 46°34' E 031°08'0 0.0
2018-Jan-19 18:52N 46°34' E 031°08'0 0.0
2018-Jan-19 18:28N 46°34' E 031°08'0 0.0
2018-Jan-19 17:58N 46°34' E 031°08'0 0.0
2018-Jan-19 16:10N 46°34' E 031°08'0 0.1
2018-Jan-19 15:58N 46°34' E 031°08'0 0.1
2018-Jan-19 15:28N 46°34' E 031°08'0 0.1
2018-Jan-19 14:58N 46°34' E 031°08'0 0.0
2018-Jan-19 14:28N 46°34' E 031°08'0 0.0
2018-Jan-19 13:58N 46°34' E 031°08'0 0.1
2018-Jan-19 13:28N 46°34' E 031°08'0 0.0
2018-Jan-19 12:58N 46°34' E 031°08'0 0.0
2018-Jan-19 12:28N 46°34' E 031°08'0 0.0
2018-Jan-19 11:58N 46°34' E 031°08'0 0.0
2018-Jan-19 11:22N 46°34' E 031°08'0 0.0
2018-Jan-19 10:58N 46°34' E 031°08'0 0.0
2018-Jan-19 10:28N 46°34' E 031°08'0 0.1
2018-Jan-19 09:58N 46°34' E 031°08'0 0.0
2018-Jan-19 09:28N 46°34' E 031°08'0 0.1
2018-Jan-19 08:58N 46°34' E 031°08'0 0.0
2018-Jan-19 08:28N 46°34' E 031°08'0 0.1
2018-Jan-19 07:55N 46°34' E 031°08'0 0.1
2018-Jan-19 07:28N 46°34' E 031°08'0 0.0
2018-Jan-19 06:58N 46°34' E 031°08'0 0.0
2018-Jan-19 06:28N 46°34' E 031°08'0 0.0
2018-Jan-19 05:58N 46°34' E 031°08'0 0.0
2018-Jan-19 05:25N 46°34' E 031°08'0 0.0
2018-Jan-19 04:58N 46°34' E 031°08'0 0.0
2018-Jan-19 04:28N 46°34' E 031°08'0 0.1
2018-Jan-19 03:58N 46°34' E 031°08'0 0.1
2018-Jan-19 03:28N 46°34' E 031°08'0 0.0
2018-Jan-19 02:58N 46°34' E 031°08'0 0.0
2018-Jan-19 02:28N 46°34' E 031°08'0 0.0
2018-Jan-19 01:58N 46°34' E 031°08'0 0.0
2018-Jan-19 01:28N 46°34' E 031°08'0 0.0
2018-Jan-19 00:58N 46°34' E 031°08'0 0.0
2018-Jan-19 00:28N 46°34' E 031°08'0 0.0
2018-Jan-18 23:58N 46°34' E 031°08'0 0.0
2018-Jan-18 23:28N 46°34' E 031°08'0 0.0
2018-Jan-18 22:58N 46°34' E 031°08'0 0.1
2018-Jan-18 22:22N 46°34' E 031°08'0 0.0
2018-Jan-18 21:58N 46°34' E 031°08'0 0.0
2018-Jan-18 21:28N 46°34' E 031°08'0 0.1
2018-Jan-18 20:58N 46°34' E 031°08'0 0.0
2018-Jan-18 20:28N 46°34' E 031°08'0 0.0
2018-Jan-18 19:58N 46°34' E 031°08'0 0.0
2018-Jan-18 19:25N 46°34' E 031°08'0 0.0
2018-Jan-18 18:58N 46°34' E 031°08'0 0.0
2018-Jan-18 18:28N 46°34' E 031°08'0 0.1
2018-Jan-18 17:58N 46°34' E 031°08'0 0.0
2018-Jan-18 08:10N 46°34' E 031°08'  
Track history (hours):
 
Tides and Currents Weather Stations Pressure Air Temp Water Temp Dewpoint Dewpoint Depression Visibility Wind Speed Wind Dir Waves Ship Positions

Amis Brave

Last reported at 2018-Jan-28 03:44 UTC. Time now 2018-Feb-21 22:48 UTC.
Position N 37°24' E 025°55'.
Warning: this ship's position is 24 days out of date.

Length 200 m; draft 12.7 m.

Type: Cargo ship. MMSI: 355534000.

Date/timePositionNaut miles runAvg speedWind from/ knotsBaromVisibWave heightAir tempDewpointWater temp
2018-Jan-28 03:44N 37°24' E 025°55'312.5
2018-Jan-28 03:31N 37°27' E 025°54'713.0
2018-Jan-28 02:59N 37°33' E 025°51'613.2
2018-Jan-28 02:31N 37°39' E 025°48'612.8
2018-Jan-28 02:00N 37°45' E 025°46'229 8.1
2018-Jan-26 21:46N 40°53' E 028°35'910.4
2018-Jan-26 20:53N 40°54' E 028°47'6 1.5
2018-Jan-26 16:43N 40°57' E 028°54'0 0.2
2018-Jan-26 16:25N 40°57' E 028°54'0 0.2
2018-Jan-26 15:59N 40°57' E 028°54'3 6.0
2018-Jan-26 15:29N 40°58' E 028°58'322 7.8
2018-Jan-24 22:04N 46°06' E 031°06'410.7
2018-Jan-24 21:40N 46°09' E 031°01'210.7
2018-Jan-24 21:29N 46°11' E 030°60'510.7
2018-Jan-24 21:00N 46°14' E 030°55'5 9.9
2018-Jan-24 20:30N 46°19' E 030°55'611.1
2018-Jan-24 20:00N 46°25' E 030°55'510.9
2018-Jan-24 19:30N 46°30' E 030°55'4 7.9
2018-Jan-24 19:00N 46°33' E 030°59'4 8.5
2018-Jan-24 18:30N 46°34' E 031°05'2 3.4
2018-Jan-24 17:58N 46°34' E 031°08'0 0.0
2018-Jan-24 17:29N 46°34' E 031°08'0 0.0
2018-Jan-24 16:59N 46°34' E 031°08'0 0.0
2018-Jan-24 16:29N 46°34' E 031°08'0 0.0
2018-Jan-24 15:56N 46°34' E 031°08'0 0.0
2018-Jan-24 15:28N 46°34' E 031°08'0 0.0
2018-Jan-24 14:59N 46°34' E 031°08'0 0.0
2018-Jan-24 14:29N 46°34' E 031°08'0 0.0
2018-Jan-24 13:59N 46°34' E 031°08'0 0.0
2018-Jan-24 13:28N 46°34' E 031°08'0 0.0
2018-Jan-24 12:59N 46°34' E 031°08'0 0.0
2018-Jan-24 12:29N 46°34' E 031°08'0 0.0
2018-Jan-24 11:58N 46°34' E 031°08'0 0.0
2018-Jan-24 11:29N 46°34' E 031°08'0 0.0
2018-Jan-24 10:58N 46°34' E 031°08'0 0.0
2018-Jan-24 10:29N 46°34' E 031°08'0 0.0
2018-Jan-24 09:59N 46°34' E 031°08'0 0.0
2018-Jan-24 09:28N 46°34' E 031°08'0 0.0
2018-Jan-24 08:58N 46°34' E 031°08'0 0.0
2018-Jan-24 08:28N 46°34' E 031°08'0 0.0
2018-Jan-24 07:59N 46°34' E 031°08'0 0.0
2018-Jan-24 07:28N 46°34' E 031°08'0 0.0
2018-Jan-24 06:59N 46°34' E 031°08'0 0.0
2018-Jan-24 06:29N 46°34' E 031°08'0 0.0
2018-Jan-24 05:58N 46°34' E 031°08'0 0.0
2018-Jan-24 05:29N 46°34' E 031°08'0 0.0
2018-Jan-24 04:55N 46°34' E 031°08'0 0.4
2018-Jan-24 04:25N 46°34' E 031°08'2 4.4
2018-Jan-24 04:00N 46°34' E 031°05'3 6.8
2018-Jan-24 03:30N 46°34' E 031°00'4 8.0
2018-Jan-24 02:59N 46°38' E 031°01'1 1.4
2018-Jan-24 02:30N 46°39' E 031°01'0 0.0
2018-Jan-24 01:54N 46°39' E 031°01'0 0.0
2018-Jan-24 01:18N 46°39' E 031°01'0 0.0
2018-Jan-24 01:00N 46°39' E 031°01'0 0.0
2018-Jan-24 00:30N 46°39' E 031°01'0 0.0
2018-Jan-24 00:00N 46°39' E 031°01'0 0.0
2018-Jan-23 23:24N 46°39' E 031°01'0 0.0
2018-Jan-23 23:00N 46°39' E 031°01'0 0.0
2018-Jan-23 22:30N 46°39' E 031°01'0 0.0
2018-Jan-23 22:00N 46°39' E 031°01'0 0.0
2018-Jan-23 21:24N 46°39' E 031°01'0 0.0
2018-Jan-23 21:00N 46°39' E 031°01'0 0.0
2018-Jan-23 20:30N 46°39' E 031°01'0 0.0
2018-Jan-23 20:00N 46°39' E 031°01'0 0.0
2018-Jan-23 19:30N 46°39' E 031°01'0 0.0
2018-Jan-23 19:00N 46°39' E 031°01'0 0.0
2018-Jan-23 03:32N 46°39' E 031°01'0 0.0
2018-Jan-23 03:30N 46°39' E 031°01'0 0.0
2018-Jan-23 02:49N 46°39' E 031°01'0 0.0
2018-Jan-23 02:28N 46°39' E 031°01'0 0.0
2018-Jan-23 01:59N 46°39' E 031°01'0 0.0
2018-Jan-23 01:30N 46°39' E 031°01'0 0.0
2018-Jan-23 01:00N 46°39' E 031°01'0 0.0
2018-Jan-23 00:30N 46°39' E 031°01'0 0.0
2018-Jan-23 00:00N 46°39' E 031°01'0 0.0
2018-Jan-22 23:30N 46°39' E 031°01'0 0.0
2018-Jan-22 23:00N 46°39' E 031°01'0 0.0
2018-Jan-22 22:29N 46°39' E 031°01'0 0.0
2018-Jan-22 21:59N 46°39' E 031°01'0 0.0
2018-Jan-22 21:30N 46°39' E 031°01'0 0.0
2018-Jan-22 21:00N 46°39' E 031°01'0 0.0
2018-Jan-22 20:30N 46°39' E 031°01'0 0.0
2018-Jan-22 20:00N 46°39' E 031°01'0 0.0
2018-Jan-22 19:30N 46°39' E 031°01'0 0.0
2018-Jan-22 19:00N 46°39' E 031°01'0 0.0
2018-Jan-22 18:30N 46°39' E 031°01'0 0.0
2018-Jan-22 18:00N 46°39' E 031°01'0 0.0
2018-Jan-22 17:30N 46°39' E 031°01'0 0.0
2018-Jan-22 17:00N 46°39' E 031°01'0 0.0
2018-Jan-22 16:30N 46°39' E 031°01'0 0.0
2018-Jan-22 15:59N 46°39' E 031°01'0 0.0
2018-Jan-22 15:30N 46°39' E 031°01'0 0.0
2018-Jan-22 15:00N 46°39' E 031°01'0 0.0
2018-Jan-22 14:29N 46°39' E 031°01'0 0.0
2018-Jan-22 14:00N 46°39' E 031°01'0 0.0
2018-Jan-22 13:30N 46°39' E 031°01'0 0.0
2018-Jan-22 13:00N 46°39' E 031°01'0 0.0
2018-Jan-22 12:30N 46°39' E 031°01'0 0.0
2018-Jan-22 12:00N 46°39' E 031°01'0 0.0
2018-Jan-22 11:30N 46°39' E 031°01'0 0.0
2018-Jan-22 11:00N 46°39' E 031°01'0 0.0
2018-Jan-22 10:30N 46°39' E 031°01'0 0.0
2018-Jan-22 10:00N 46°39' E 031°01'0 0.0
2018-Jan-22 09:30N 46°39' E 031°01'0 0.0
2018-Jan-22 09:00N 46°39' E 031°01'0 0.0
2018-Jan-22 08:30N 46°39' E 031°01'0 0.0
2018-Jan-22 08:00N 46°39' E 031°01'0 0.0
2018-Jan-22 07:30N 46°39' E 031°01'0 0.0
2018-Jan-22 07:00N 46°39' E 031°01'0 0.0
2018-Jan-22 06:30N 46°39' E 031°01'0 0.0
2018-Jan-22 06:00N 46°39' E 031°01'0 0.0
2018-Jan-22 05:30N 46°39' E 031°01'0 0.0
2018-Jan-22 05:00N 46°39' E 031°01'0 0.0
2018-Jan-22 04:30N 46°39' E 031°01'0 0.0
2018-Jan-22 04:00N 46°39' E 031°01'0 0.0
2018-Jan-22 03:30N 46°39' E 031°01'0 0.0
2018-Jan-22 03:00N 46°39' E 031°01'0 0.0
2018-Jan-22 02:30N 46°39' E 031°01'0 0.0
2018-Jan-22 02:00N 46°39' E 031°01'0 0.0
2018-Jan-22 01:30N 46°39' E 031°01'0 0.0
2018-Jan-22 01:00N 46°39' E 031°01'0 0.0
2018-Jan-22 00:30N 46°39' E 031°01'0 0.0
2018-Jan-22 00:00N 46°39' E 031°01'0 0.0
2018-Jan-21 23:30N 46°39' E 031°01'0 0.0
2018-Jan-21 23:00N 46°39' E 031°01'0 0.0
2018-Jan-21 22:30N 46°39' E 031°01'0 0.0
2018-Jan-21 22:00N 46°39' E 031°01'0 0.0
2018-Jan-21 21:30N 46°39' E 031°01'0 0.0
2018-Jan-21 21:00N 46°39' E 031°01'0 0.0
2018-Jan-21 20:30N 46°39' E 031°01'0 0.0
2018-Jan-21 20:00N 46°39' E 031°01'0 0.0
2018-Jan-21 19:28N 46°39' E 031°01'0 0.0
2018-Jan-21 19:00N 46°39' E 031°01'0 0.0
2018-Jan-21 18:29N 46°39' E 031°01'0 0.0
2018-Jan-21 18:00N 46°39' E 031°01'0 0.0
2018-Jan-21 17:30N 46°39' E 031°01'0 0.0
2018-Jan-21 17:00N 46°39' E 031°01'0 0.0
2018-Jan-21 16:30N 46°39' E 031°01'0 0.0
2018-Jan-21 16:00N 46°39' E 031°01'0 0.0
2018-Jan-21 15:30N 46°39' E 031°01'0 0.0
2018-Jan-21 15:00N 46°39' E 031°01'0 0.0
2018-Jan-21 14:30N 46°39' E 031°01'0 0.0
2018-Jan-21 14:00N 46°39' E 031°01'0 0.0
2018-Jan-21 13:30N 46°39' E 031°01'0 0.0
2018-Jan-21 12:55N 46°39' E 031°01'0 0.0
2018-Jan-21 12:25N 46°39' E 031°01'0 0.0
2018-Jan-21 11:58N 46°39' E 031°01'0 0.0
2018-Jan-21 11:28N 46°39' E 031°01'0 0.0
2018-Jan-21 10:58N 46°39' E 031°01'0 0.0
2018-Jan-21 10:28N 46°39' E 031°01'0 0.0
2018-Jan-21 09:55N 46°39' E 031°01'0 0.0
2018-Jan-21 09:28N 46°39' E 031°01'0 0.0
2018-Jan-21 08:58N 46°39' E 031°01'0 0.0
2018-Jan-21 08:28N 46°39' E 031°01'0 0.0
2018-Jan-21 07:58N 46°39' E 031°01'0 0.0
2018-Jan-21 07:28N 46°39' E 031°01'0 0.0
2018-Jan-21 06:55N 46°39' E 031°01'0 0.0
2018-Jan-21 06:28N 46°39' E 031°01'0 0.0
2018-Jan-21 05:58N 46°39' E 031°01'0 0.0
2018-Jan-21 05:28N 46°39' E 031°01'0 0.0
2018-Jan-21 04:58N 46°39' E 031°01'1 2.0
2018-Jan-21 04:30N 46°38' E 031°01'4 7.9
2018-Jan-21 03:59N 46°34' E 031°01'3 6.5
2018-Jan-21 03:30N 46°34' E 031°05'2 3.5
2018-Jan-21 02:58N 46°34' E 031°08'0 0.1
2018-Jan-21 02:28N 46°34' E 031°08'0 0.0
2018-Jan-21 01:58N 46°34' E 031°08'0 0.0
2018-Jan-21 01:28N 46°34' E 031°08'0 0.1
2018-Jan-21 00:58N 46°34' E 031°08'0 0.0
2018-Jan-21 00:28N 46°34' E 031°08'0 0.0
2018-Jan-20 23:58N 46°34' E 031°08'0 0.0
2018-Jan-20 23:22N 46°34' E 031°08'0 0.0
2018-Jan-20 22:58N 46°34' E 031°08'0 0.1
2018-Jan-20 22:28N 46°34' E 031°08'0 0.0
2018-Jan-20 21:55N 46°34' E 031°08'0 0.0
2018-Jan-20 21:28N 46°34' E 031°08'0 0.0
2018-Jan-20 20:58N 46°34' E 031°08'0 0.0
2018-Jan-20 20:25N 46°34' E 031°08'0 0.0
2018-Jan-20 19:58N 46°34' E 031°08'0 0.0
2018-Jan-20 19:25N 46°34' E 031°08'0 0.0
2018-Jan-20 18:58N 46°34' E 031°08'0 0.0
2018-Jan-20 18:28N 46°34' E 031°08'0 0.1
2018-Jan-20 17:58N 46°34' E 031°08'0 0.0
2018-Jan-20 17:28N 46°34' E 031°08'0 0.1
2018-Jan-20 16:58N 46°34' E 031°08'0 0.1
2018-Jan-20 16:28N 46°34' E 031°08'0 0.0
2018-Jan-20 15:58N 46°34' E 031°08'0 0.0
2018-Jan-20 15:28N 46°34' E 031°08'0 0.0
2018-Jan-20 14:58N 46°34' E 031°08'0 0.0
2018-Jan-20 14:28N 46°34' E 031°08'0 0.0
2018-Jan-20 13:58N 46°34' E 031°08'0 0.0
2018-Jan-20 13:28N 46°34' E 031°08'0 0.0
2018-Jan-20 12:58N 46°34' E 031°08'0 0.0
2018-Jan-20 12:28N 46°34' E 031°08'0 0.1
2018-Jan-20 11:58N 46°34' E 031°08'0 0.1
2018-Jan-20 11:28N 46°34' E 031°08'0 0.0
2018-Jan-20 10:58N 46°34' E 031°08'0 0.0
2018-Jan-20 10:28N 46°34' E 031°08'0 0.0
2018-Jan-20 09:58N 46°34' E 031°08'0 0.1
2018-Jan-20 09:28N 46°34' E 031°08'0 0.0
2018-Jan-20 08:58N 46°34' E 031°08'0 0.0
2018-Jan-20 08:28N 46°34' E 031°08'0 0.0
2018-Jan-20 07:58N 46°34' E 031°08'0 0.0
2018-Jan-20 07:28N 46°34' E 031°08'0 0.0
2018-Jan-20 06:58N 46°34' E 031°08'0 0.1
2018-Jan-20 06:28N 46°34' E 031°08'0 0.0
2018-Jan-20 05:58N 46°34' E 031°08'0 0.0
2018-Jan-20 05:28N 46°34' E 031°08'0 0.1
2018-Jan-20 04:58N 46°34' E 031°08'0 0.1
2018-Jan-20 04:22N 46°34' E 031°08'0 0.1
2018-Jan-20 03:55N 46°34' E 031°08'0 0.1
2018-Jan-20 03:22N 46°34' E 031°08'0 0.0
2018-Jan-20 02:58N 46°34' E 031°08'0 0.1
2018-Jan-20 02:28N 46°34' E 031°08'0 0.0
2018-Jan-20 01:58N 46°34' E 031°08'0 0.0
2018-Jan-20 01:28N 46°34' E 031°08'0 0.0
2018-Jan-20 00:58N 46°34' E 031°08'0 0.0
2018-Jan-20 00:25N 46°34' E 031°08'0 0.0
2018-Jan-19 23:58N 46°34' E 031°08'0 0.0
2018-Jan-19 23:28N 46°34' E 031°08'0 0.0
2018-Jan-19 22:58N 46°34' E 031°08'0 0.1
2018-Jan-19 22:28N 46°34' E 031°08'0 0.0
2018-Jan-19 21:58N 46°34' E 031°08'0 0.0
2018-Jan-19 21:28N 46°34' E 031°08'0 0.0
2018-Jan-19 20:58N 46°34' E 031°08'0 0.1
2018-Jan-19 20:28N 46°34' E 031°08'0 0.0
2018-Jan-19 19:58N 46°34' E 031°08'0 0.0
2018-Jan-19 19:28N 46°34' E 031°08'0 0.0
2018-Jan-19 18:52N 46°34' E 031°08'0 0.0
2018-Jan-19 18:28N 46°34' E 031°08'0 0.0
2018-Jan-19 17:58N 46°34' E 031°08'0 0.0
2018-Jan-19 16:10N 46°34' E 031°08'0 0.1
2018-Jan-19 15:58N 46°34' E 031°08'0 0.1
2018-Jan-19 15:28N 46°34' E 031°08'0 0.1
2018-Jan-19 14:58N 46°34' E 031°08'0 0.0
2018-Jan-19 14:28N 46°34' E 031°08'0 0.0
2018-Jan-19 13:58N 46°34' E 031°08'0 0.1
2018-Jan-19 13:28N 46°34' E 031°08'0 0.0
2018-Jan-19 12:58N 46°34' E 031°08'0 0.0
2018-Jan-19 12:28N 46°34' E 031°08'0 0.0
2018-Jan-19 11:58N 46°34' E 031°08'0 0.0
2018-Jan-19 11:22N 46°34' E 031°08'0 0.0
2018-Jan-19 10:58N 46°34' E 031°08'0 0.0
2018-Jan-19 10:28N 46°34' E 031°08'0 0.1
2018-Jan-19 09:58N 46°34' E 031°08'0 0.0
2018-Jan-19 09:28N 46°34' E 031°08'0 0.1
2018-Jan-19 08:58N 46°34' E 031°08'0 0.0
2018-Jan-19 08:28N 46°34' E 031°08'0 0.1
2018-Jan-19 07:55N 46°34' E 031°08'0 0.1
2018-Jan-19 07:28N 46°34' E 031°08'0 0.0
2018-Jan-19 06:58N 46°34' E 031°08'0 0.0
2018-Jan-19 06:28N 46°34' E 031°08'0 0.0
2018-Jan-19 05:58N 46°34' E 031°08'0 0.0
2018-Jan-19 05:25N 46°34' E 031°08'0 0.0
2018-Jan-19 04:58N 46°34' E 031°08'0 0.0
2018-Jan-19 04:28N 46°34' E 031°08'0 0.1
2018-Jan-19 03:58N 46°34' E 031°08'0 0.1
2018-Jan-19 03:28N 46°34' E 031°08'0 0.0
2018-Jan-19 02:58N 46°34' E 031°08'0 0.0
2018-Jan-19 02:28N 46°34' E 031°08'0 0.0
2018-Jan-19 01:58N 46°34' E 031°08'0 0.0
2018-Jan-19 01:28N 46°34' E 031°08'0 0.0
2018-Jan-19 00:58N 46°34' E 031°08'0 0.0
2018-Jan-19 00:28N 46°34' E 031°08'0 0.0
2018-Jan-18 23:58N 46°34' E 031°08'0 0.0
2018-Jan-18 23:28N 46°34' E 031°08'0 0.0
2018-Jan-18 22:58N 46°34' E 031°08'0 0.1
2018-Jan-18 22:22N 46°34' E 031°08'0 0.0
2018-Jan-18 21:58N 46°34' E 031°08'0 0.0
2018-Jan-18 21:28N 46°34' E 031°08'0 0.1
2018-Jan-18 20:58N 46°34' E 031°08'0 0.0
2018-Jan-18 20:28N 46°34' E 031°08'0 0.0
2018-Jan-18 19:58N 46°34' E 031°08'0 0.0
2018-Jan-18 19:25N 46°34' E 031°08'0 0.0
2018-Jan-18 18:58N 46°34' E 031°08'0 0.0
2018-Jan-18 18:28N 46°34' E 031°08'0 0.1
2018-Jan-18 17:58N 46°34' E 031°08'0 0.0
2018-Jan-18 08:10N 46°34' E 031°08'  

Dump ship's entire track history